createdAt,value
2022-08-17T00:02:04.954Z,26.25
2022-08-17T00:07:17.428Z,26.24
2022-08-17T00:12:42.971Z,26.23
2022-08-17T00:17:48.486Z,26.24
2022-08-17T00:23:02.379Z,26.23
2022-08-17T00:28:06.890Z,26.25
2022-08-17T00:33:16.446Z,26.25
2022-08-17T00:38:21.330Z,26.21
2022-08-17T00:43:29.665Z,26.21
2022-08-17T00:48:33.886Z,26.22
2022-08-17T00:53:46.106Z,26.23
2022-08-17T00:58:52.368Z,26.22
2022-08-17T01:03:59.997Z,26.20
2022-08-17T01:09:05.016Z,26.19
2022-08-17T01:14:09.607Z,26.21
2022-08-17T01:19:16.128Z,26.20
2022-08-17T01:24:20.246Z,26.22
2022-08-17T01:29:24.906Z,26.20
2022-08-17T01:34:42.892Z,26.20
2022-08-17T01:39:49.804Z,26.21
2022-08-17T01:44:56.382Z,26.20
2022-08-17T01:50:04.897Z,26.20
2022-08-17T01:55:10.295Z,26.19
2022-08-17T02:00:15.446Z,26.18
2022-08-17T02:05:20.466Z,26.22
2022-08-17T02:10:25.117Z,26.19
2022-08-17T02:15:38.836Z,26.20
2022-08-17T02:20:43.061Z,26.18
2022-08-17T02:25:48.345Z,26.18
2022-08-17T02:31:02.541Z,26.18
2022-08-17T02:36:09.226Z,26.17
2022-08-17T02:41:13.536Z,26.18
2022-08-17T02:46:19.326Z,26.16
2022-08-17T02:51:23.356Z,26.16
2022-08-17T02:56:27.687Z,26.17
2022-08-17T03:01:31.587Z,26.17
2022-08-17T03:06:35.806Z,26.17
2022-08-17T03:11:40.116Z,26.17
2022-08-17T03:16:44.276Z,26.16
2022-08-17T03:21:54.962Z,26.17
2022-08-17T03:27:00.396Z,26.16
2022-08-17T03:32:11.606Z,26.16
2022-08-17T03:37:16.088Z,26.16
2022-08-17T03:42:31.870Z,26.15
2022-08-17T03:47:55.478Z,26.15
2022-08-17T03:53:17.726Z,26.15
2022-08-17T03:58:22.268Z,26.13
2022-08-17T04:03:26.916Z,26.14
2022-08-17T04:08:31.246Z,26.14
2022-08-17T04:13:35.475Z,26.15
2022-08-17T04:18:40.016Z,26.14
2022-08-17T04:23:44.250Z,26.13
2022-08-17T04:28:48.432Z,26.15
2022-08-17T04:33:52.915Z,26.16
2022-08-17T04:38:58.283Z,26.15
2022-08-17T04:44:04.246Z,26.15
2022-08-17T04:49:09.331Z,26.16
2022-08-17T04:54:14.466Z,26.16
2022-08-17T04:59:20.181Z,26.16
2022-08-17T05:04:34.539Z,26.16
2022-08-17T05:09:39.448Z,26.19
2022-08-17T05:14:43.519Z,26.21
2022-08-17T05:19:51.446Z,26.26
2022-08-17T05:24:55.989Z,26.27
2022-08-17T05:30:00.366Z,26.29
2022-08-17T05:35:05.084Z,26.31
2022-08-17T05:40:10.263Z,26.33
2022-08-17T05:45:15.993Z,26.36
2022-08-17T05:50:29.815Z,26.41
2022-08-17T05:55:37.727Z,26.43
2022-08-17T06:00:50.288Z,26.44
2022-08-17T06:06:01.029Z,26.47
2022-08-17T06:11:09.487Z,26.50
2022-08-17T06:16:33.309Z,26.54
2022-08-17T06:21:41.708Z,26.58
2022-08-17T06:26:46.349Z,26.60
2022-08-17T06:31:50.820Z,26.62
2022-08-17T06:36:59.141Z,26.65
2022-08-17T06:42:10.856Z,26.68
2022-08-17T06:47:36.619Z,26.72
2022-08-17T06:52:47.114Z,26.74
2022-08-17T06:58:01.904Z,26.76
2022-08-17T07:03:15.530Z,26.79
2022-08-17T07:08:27.716Z,26.79
2022-08-17T07:13:41.930Z,26.85
2022-08-17T07:18:46.667Z,26.85
2022-08-17T07:24:00.414Z,26.88
2022-08-17T07:29:05.749Z,26.91
2022-08-17T07:34:14.311Z,26.92
2022-08-17T07:39:26.633Z,26.92
2022-08-17T07:44:31.107Z,26.97
2022-08-17T07:49:37.131Z,27.00
2022-08-17T07:54:42.489Z,27.04
2022-08-17T08:00:06.199Z,27.07
2022-08-17T08:05:55.378Z,27.13
2022-08-17T08:37:12.523Z,27.30
2022-08-17T08:42:10.586Z,27.31
2022-08-17T08:47:20.869Z,27.27
2022-08-17T08:52:37.517Z,27.27
2022-08-17T08:57:49.030Z,27.26
2022-08-17T09:03:37.632Z,27.24
2022-08-17T09:09:00.661Z,27.29
2022-08-17T09:14:21.586Z,27.27
2022-08-17T09:19:36.776Z,27.26
2022-08-17T09:24:45.949Z,27.28
2022-08-17T09:29:58.171Z,27.27
2022-08-17T09:35:07.399Z,27.22
2022-08-17T09:40:19.265Z,27.27
2022-08-17T09:45:38.157Z,27.29
2022-08-17T09:51:03.335Z,27.29
2022-08-17T09:56:29.816Z,27.32
2022-08-17T10:01:39.020Z,27.28
2022-08-17T10:06:50.495Z,27.26
2022-08-17T10:12:20.848Z,27.28
2022-08-17T10:17:30.097Z,27.27
2022-08-17T10:22:58.468Z,27.28
2022-08-17T10:28:09.819Z,27.27
2022-08-17T10:33:29.008Z,27.26
2022-08-17T10:38:46.456Z,27.23
2022-08-17T10:44:38.730Z,27.20
2022-08-17T10:49:30.987Z,27.22
2022-08-17T10:54:42.101Z,27.18
2022-08-17T10:59:53.031Z,27.17
2022-08-17T11:05:25.380Z,27.18
2022-08-17T11:10:49.943Z,27.15
2022-08-17T11:16:08.519Z,27.17
2022-08-17T11:21:31.628Z,27.17
2022-08-17T11:26:41.989Z,27.17
2022-08-17T11:32:00.196Z,27.15
2022-08-17T11:37:35.648Z,27.13
2022-08-17T11:42:52.081Z,27.13
2022-08-17T11:48:34.737Z,27.14
2022-08-17T11:54:30.570Z,27.14
2022-08-17T11:59:46.687Z,27.15
2022-08-17T12:05:04.588Z,27.11
2022-08-17T12:10:17.669Z,27.14
2022-08-17T12:15:29.670Z,27.12
2022-08-17T12:20:38.707Z,27.09
2022-08-17T12:25:49.898Z,27.11
2022-08-17T12:31:04.647Z,27.12
2022-08-17T12:36:15.585Z,27.11
2022-08-17T12:41:32.786Z,27.10
2022-08-17T12:46:49.875Z,27.12
2022-08-17T12:52:04.615Z,27.12
2022-08-17T12:57:14.375Z,27.12
2022-08-17T13:02:32.608Z,27.10
2022-08-17T13:07:44.351Z,27.09
2022-08-17T13:12:51.448Z,27.09
2022-08-17T13:17:59.655Z,27.09
2022-08-17T13:23:12.159Z,27.08
2022-08-17T13:28:30.639Z,27.10
2022-08-17T13:33:44.593Z,27.11
2022-08-17T13:38:52.346Z,27.08
2022-08-17T13:43:58.936Z,27.10
2022-08-17T13:49:07.121Z,27.09
2022-08-17T13:54:25.671Z,27.12
2022-08-17T13:59:52.965Z,27.11
2022-08-17T14:05:02.505Z,27.09
2022-08-17T14:10:15.457Z,27.10
2022-08-17T14:15:23.607Z,27.11
2022-08-17T14:20:50.098Z,27.13
2022-08-17T14:25:56.758Z,27.11
2022-08-17T14:31:03.810Z,27.11
2022-08-17T14:36:10.736Z,27.10
2022-08-17T14:41:21.987Z,27.11
2022-08-17T14:46:29.457Z,27.12
2022-08-17T14:51:36.114Z,27.12
2022-08-17T14:56:54.220Z,27.13
2022-08-17T15:02:17.207Z,27.12
2022-08-17T15:07:26.134Z,27.12
2022-08-17T15:12:38.456Z,27.12
2022-08-17T15:17:46.175Z,27.13
2022-08-17T15:22:55.679Z,27.12
2022-08-17T15:28:03.429Z,27.12
2022-08-17T15:33:14.038Z,27.13
2022-08-17T15:38:23.218Z,27.12
2022-08-17T15:43:32.898Z,27.13
2022-08-17T15:48:42.884Z,27.11
2022-08-17T15:53:51.416Z,27.14
2022-08-17T15:58:58.432Z,27.13
2022-08-17T16:04:26.952Z,27.17
2022-08-17T16:09:32.285Z,27.31
2022-08-17T16:14:38.961Z,27.41
2022-08-17T16:19:45.888Z,27.37
2022-08-17T16:24:57.429Z,27.24
2022-08-17T16:30:05.009Z,27.04
2022-08-17T16:35:14.687Z,26.99
2022-08-17T16:40:21.709Z,26.93
2022-08-17T16:45:37.319Z,26.92
2022-08-17T16:51:02.013Z,26.90
2022-08-17T16:56:10.888Z,27.17
2022-08-17T17:01:17.745Z,27.16
2022-08-17T17:06:29.683Z,27.17
2022-08-17T17:11:42.218Z,27.23
2022-08-17T17:16:53.757Z,27.22
2022-08-17T17:22:07.766Z,27.20
2022-08-17T17:27:19.106Z,27.20
2022-08-17T17:32:30.008Z,27.24
2022-08-17T17:37:37.195Z,27.21
2022-08-17T17:42:45.376Z,27.23
2022-08-17T17:47:52.421Z,27.20
2022-08-17T17:53:02.558Z,27.23
2022-08-17T17:58:18.646Z,27.23
2022-08-17T18:03:51.226Z,27.23
2022-08-17T18:09:06.333Z,27.24
2022-08-17T18:14:19.078Z,27.23
2022-08-17T18:19:27.087Z,27.23
2022-08-17T18:24:35.087Z,27.21
2022-08-17T18:29:44.864Z,27.20
2022-08-17T18:34:53.849Z,27.20
2022-08-17T18:40:00.841Z,27.23
2022-08-17T18:45:08.246Z,27.22
2022-08-17T18:50:25.766Z,27.19
2022-08-17T18:55:32.939Z,27.24
2022-08-17T19:00:41.707Z,27.21
2022-08-17T19:05:49.459Z,27.20
2022-08-17T19:10:57.551Z,27.21
2022-08-17T19:16:14.010Z,27.17
2022-08-17T19:21:23.488Z,27.23
2022-08-17T19:26:50.721Z,27.20
2022-08-17T19:32:02.067Z,27.22
2022-08-17T19:37:13.247Z,27.21
2022-08-17T19:42:27.047Z,27.22
2022-08-17T19:47:54.403Z,27.23
2022-08-17T19:53:07.966Z,27.24
2022-08-17T19:58:21.550Z,27.26
2022-08-17T20:03:34.557Z,27.23
2022-08-17T20:08:42.697Z,27.23
2022-08-17T20:13:54.626Z,27.21
2022-08-17T20:19:02.668Z,27.22
2022-08-17T20:24:18.549Z,27.24
2022-08-17T20:29:37.746Z,27.22
2022-08-17T20:34:49.294Z,27.22
2022-08-17T20:40:09.696Z,27.22
2022-08-17T20:45:33.506Z,27.21
2022-08-17T20:50:44.051Z,27.20
2022-08-17T20:55:56.197Z,27.25
2022-08-17T21:01:13.573Z,27.22
2022-08-17T21:06:21.359Z,27.19
2022-08-17T21:11:57.372Z,27.23
2022-08-17T21:17:38.667Z,27.22
2022-08-17T21:22:52.971Z,27.25
2022-08-17T21:28:03.767Z,27.21
2022-08-17T21:33:20.125Z,27.23
2022-08-17T21:38:36.298Z,27.21
2022-08-17T21:43:48.338Z,27.21
2022-08-17T21:48:57.656Z,27.24
2022-08-17T21:54:06.357Z,27.22
2022-08-17T21:59:22.147Z,27.21
2022-08-17T22:04:29.787Z,27.22
2022-08-17T22:09:37.867Z,27.21
2022-08-17T22:14:53.066Z,27.21
2022-08-17T22:20:02.427Z,27.23
2022-08-17T22:25:21.427Z,27.21
2022-08-17T22:30:33.269Z,27.20
2022-08-17T22:35:40.993Z,27.21
2022-08-17T22:40:50.095Z,27.21
2022-08-17T22:45:57.517Z,27.20
2022-08-17T22:51:12.340Z,27.20
2022-08-17T22:56:40.957Z,27.18
2022-08-17T23:02:08.126Z,27.20
2022-08-17T23:07:14.986Z,27.20
2022-08-17T23:12:24.895Z,27.22
2022-08-17T23:17:37.115Z,27.20
2022-08-17T23:22:52.419Z,27.22
2022-08-17T23:28:01.949Z,27.19
2022-08-17T23:33:09.554Z,27.20
2022-08-17T23:38:16.307Z,27.19
2022-08-17T23:43:27.541Z,27.20
2022-08-17T23:48:37.361Z,27.22
2022-08-17T23:53:46.577Z,27.19
2022-08-17T23:58:54.073Z,27.18
